createdAt,value
2022-12-22T09:32:13.995Z,9.661375
2022-12-22T09:33:13.971Z,9.661444
2022-12-22T09:34:17.949Z,9.661479
2022-12-22T09:35:13.985Z,9.661486
2022-12-22T09:36:13.959Z,9.661469
2022-12-22T09:37:13.946Z,9.661206
2022-12-22T09:38:13.940Z,9.661181
2022-12-22T09:39:13.918Z,9.660868
2022-12-22T09:40:13.876Z,9.660751
2022-12-22T09:41:13.933Z,9.660451
2022-12-22T09:42:13.931Z,9.660250
2022-12-22T09:43:13.909Z,9.659746
2022-12-22T09:44:13.886Z,9.659684
2022-12-22T09:45:17.288Z,9.658713
2022-12-22T09:46:14.954Z,9.660217
2022-12-22T09:47:13.873Z,9.660523
2022-12-22T09:48:13.881Z,9.660400
2022-12-22T09:49:13.882Z,9.660235
2022-12-22T09:50:13.858Z,9.660368
2022-12-22T09:51:13.870Z,9.661320
2022-12-22T09:52:14.580Z,9.661699
2022-12-22T09:53:13.816Z,9.661595
2022-12-22T09:54:13.856Z,9.661506
2022-12-22T09:55:13.822Z,9.661606
2022-12-22T09:56:13.829Z,9.661570
2022-12-22T09:57:13.819Z,9.661539
2022-12-22T09:58:13.812Z,9.661459
2022-12-22T09:59:13.815Z,9.661582
2022-12-22T10:00:13.793Z,9.661733
2022-12-22T10:01:13.844Z,9.661532
2022-12-22T10:02:13.821Z,9.661485
2022-12-22T10:03:13.804Z,9.661460
2022-12-22T10:04:13.766Z,9.661391
2022-12-22T10:05:13.783Z,9.661499
2022-12-22T10:06:13.796Z,9.661469
2022-12-22T10:07:13.746Z,9.661524
2022-12-22T10:08:13.755Z,9.661522
2022-12-22T10:09:43.969Z,9.661648
2022-12-22T10:10:14.744Z,9.661606
2022-12-22T10:11:13.751Z,9.661615
2022-12-22T10:12:13.749Z,9.661657
2022-12-22T10:13:13.700Z,9.661720
2022-12-22T10:14:13.720Z,9.661658
2022-12-22T10:15:20.041Z,9.661680
2022-12-22T10:16:14.731Z,9.661779
2022-12-22T10:17:13.713Z,9.661738
2022-12-22T10:18:13.692Z,9.661580
2022-12-22T10:19:13.692Z,9.661721
2022-12-22T10:20:13.660Z,9.661589
2022-12-22T10:21:13.673Z,9.661708
2022-12-22T10:22:14.749Z,9.661695
2022-12-22T10:23:13.628Z,9.661675
2022-12-22T10:24:13.645Z,9.661555
2022-12-22T10:25:13.649Z,9.661506
2022-12-22T10:26:30.837Z,9.661600
2022-12-22T10:27:15.645Z,9.661583
2022-12-22T10:28:13.630Z,9.661433
2022-12-22T10:29:13.609Z,9.661632
2022-12-22T10:30:13.574Z,9.661552
2022-12-22T10:31:13.585Z,9.661612
2022-12-22T10:32:13.657Z,9.661690
2022-12-22T10:33:13.674Z,9.661657
2022-12-22T10:34:13.579Z,9.661290
2022-12-22T10:35:13.581Z,9.661392
2022-12-22T10:36:13.598Z,9.661331
2022-12-22T10:37:13.563Z,9.661720
2022-12-22T10:38:21.611Z,9.661532
2022-12-22T10:39:14.573Z,9.661466
2022-12-22T10:40:13.520Z,9.661601
2022-12-22T10:41:13.549Z,9.661585
2022-12-22T10:42:13.547Z,9.661606
2022-12-22T10:43:13.512Z,9.661606
2022-12-22T10:44:13.616Z,9.661815
2022-12-22T10:45:13.497Z,9.661674
2022-12-22T10:46:13.556Z,9.661704
2022-12-22T10:47:17.410Z,9.661611
2022-12-22T10:48:14.516Z,9.661613
2022-12-22T10:49:13.502Z,9.661776
2022-12-22T10:50:13.482Z,9.661681
2022-12-22T10:51:13.460Z,9.661814
2022-12-22T10:52:13.483Z,9.661849
2022-12-22T10:53:13.406Z,9.661700
2022-12-22T10:54:13.465Z,9.661704
2022-12-22T10:55:13.589Z,9.661698
2022-12-22T10:56:13.471Z,9.661736
2022-12-22T10:57:13.434Z,9.661819
2022-12-22T10:58:13.508Z,9.661748
2022-12-22T10:59:13.437Z,9.661887
2022-12-22T11:00:13.441Z,9.661746
2022-12-22T11:01:13.435Z,9.661819
2022-12-22T11:02:13.557Z,9.661834
2022-12-22T11:03:16.159Z,9.661748
2022-12-22T11:04:14.417Z,9.661578
2022-12-22T11:05:13.379Z,9.662298
2022-12-22T11:06:13.392Z,9.662105
2022-12-22T11:07:13.343Z,9.661934
2022-12-22T11:08:13.419Z,9.661567
2022-12-22T11:09:32.489Z,9.661613
2022-12-22T11:10:15.376Z,9.661683
2022-12-22T11:11:13.481Z,9.661707
2022-12-22T11:12:13.366Z,9.662132
2022-12-22T11:13:13.341Z,9.661971
2022-12-22T11:14:13.332Z,9.662211
2022-12-22T11:15:17.181Z,9.662342
2022-12-22T11:16:14.590Z,9.662160
2022-12-22T11:17:13.333Z,9.662785
2022-12-22T11:18:13.380Z,9.663007
2022-12-22T11:19:13.333Z,9.664255
2022-12-22T11:20:13.331Z,9.661699
2022-12-22T11:21:16.185Z,9.661674
2022-12-22T11:22:13.289Z,9.661712
2022-12-22T11:23:13.293Z,9.661636
2022-12-22T11:24:13.296Z,9.661607
2022-12-22T11:25:13.229Z,9.661541
2022-12-22T11:26:13.220Z,9.661497
2022-12-22T11:27:13.352Z,9.661338
2022-12-22T11:28:13.228Z,9.661320
2022-12-22T11:29:13.201Z,9.661518
2022-12-22T11:30:13.197Z,9.661284
2022-12-22T11:31:13.304Z,9.661399
2022-12-22T11:32:13.216Z,9.661375
2022-12-22T11:33:13.325Z,9.661518
2022-12-22T11:34:19.026Z,9.661416
2022-12-22T11:35:15.213Z,9.661515
2022-12-22T11:36:13.179Z,9.661503
2022-12-22T11:37:13.230Z,9.661653
2022-12-22T11:38:13.266Z,9.661850
2022-12-22T11:39:13.169Z,9.661887
2022-12-22T11:40:13.178Z,9.662154
2022-12-22T11:41:13.124Z,9.662050
2022-12-22T11:42:13.133Z,9.661593
2022-12-22T11:43:13.118Z,9.661491
2022-12-22T11:44:13.149Z,9.661580
2022-12-22T11:45:13.136Z,9.661463
2022-12-22T11:46:13.215Z,9.661356
2022-12-22T11:47:13.133Z,9.661423
2022-12-22T11:48:13.148Z,9.661427
2022-12-22T11:49:13.180Z,9.661372
2022-12-22T11:51:00.867Z,9.661365
2022-12-22T11:51:14.595Z,9.661469
2022-12-22T11:52:14.078Z,9.661388
2022-12-22T11:53:13.114Z,9.661448
2022-12-22T11:54:13.084Z,9.661471
2022-12-22T11:55:13.123Z,9.661465
2022-12-22T11:56:13.073Z,9.661468
2022-12-22T11:57:13.071Z,9.661510
2022-12-22T11:58:13.044Z,9.661467
2022-12-22T11:59:13.615Z,9.661557
2022-12-22T12:00:13.153Z,9.661540
2022-12-22T12:01:17.518Z,9.661513
2022-12-22T12:02:14.221Z,9.661471
2022-12-22T12:03:13.055Z,9.661517
2022-12-22T12:04:13.102Z,9.661531
2022-12-22T12:05:12.985Z,9.661668
2022-12-22T12:06:13.072Z,9.661635
2022-12-22T12:07:12.989Z,9.661709
2022-12-22T12:08:12.960Z,9.661364
2022-12-22T12:09:12.951Z,9.661535
2022-12-22T12:10:14.656Z,9.661459
2022-12-22T12:11:13.063Z,9.661367
2022-12-22T12:12:12.967Z,9.661420
2022-12-22T12:13:12.985Z,9.661460
2022-12-22T12:14:12.931Z,9.661444
2022-12-22T12:15:12.945Z,9.661482
2022-12-22T12:16:13.003Z,9.661511
2022-12-22T12:17:13.035Z,9.661559
2022-12-22T12:18:12.926Z,9.661509
2022-12-22T12:19:12.941Z,9.661564
2022-12-22T12:20:12.896Z,9.661548
2022-12-22T12:21:12.941Z,9.661499
2022-12-22T12:22:12.982Z,9.661463
2022-12-22T12:23:12.930Z,9.661661
2022-12-22T12:24:12.873Z,9.661424
2022-12-22T12:25:12.902Z,9.661359
2022-12-22T12:26:12.871Z,9.661266
2022-12-22T12:27:12.864Z,9.661132
2022-12-22T12:28:12.968Z,9.661193
2022-12-22T12:29:12.847Z,9.661225
2022-12-22T12:30:37.343Z,9.661419
2022-12-22T12:31:14.940Z,9.661406
2022-12-22T12:32:12.855Z,9.661537
2022-12-22T12:33:13.002Z,9.661263
2022-12-22T12:34:12.800Z,9.661345
2022-12-22T12:35:12.851Z,9.661390
2022-12-22T12:36:12.811Z,9.661528
2022-12-22T12:37:12.786Z,9.661282
2022-12-22T12:38:32.286Z,9.661403
2022-12-22T12:39:14.898Z,9.661510
2022-12-22T12:40:12.767Z,9.661687
2022-12-22T12:41:12.771Z,9.661559
2022-12-22T12:42:13.632Z,9.661692
2022-12-22T12:43:16.485Z,9.661482
2022-12-22T12:44:12.764Z,9.661640
2022-12-22T12:45:12.782Z,9.661684
2022-12-22T12:46:12.768Z,9.661563
2022-12-22T12:47:12.714Z,9.661521
2022-12-22T12:48:12.745Z,9.661458
2022-12-22T12:49:12.735Z,9.661330
2022-12-22T12:50:12.807Z,9.661414
2022-12-22T12:51:12.701Z,9.661544
2022-12-22T12:52:12.724Z,9.661646
2022-12-22T12:53:12.685Z,9.661718
2022-12-22T12:54:12.687Z,9.661612
2022-12-22T12:55:17.098Z,9.661563
2022-12-22T12:56:14.707Z,9.661574
2022-12-22T12:57:12.669Z,9.661560
2022-12-22T12:58:12.677Z,9.661540
2022-12-22T12:59:12.623Z,9.661573
2022-12-22T13:00:12.661Z,9.661611
2022-12-22T13:01:12.750Z,9.661608
2022-12-22T13:02:12.745Z,9.661551
2022-12-22T13:03:25.230Z,9.661557
2022-12-22T13:04:14.762Z,9.661540
2022-12-22T13:05:12.680Z,9.661511
2022-12-22T13:06:12.634Z,9.661612
2022-12-22T13:07:12.609Z,9.661577
2022-12-22T13:08:12.612Z,9.661466
2022-12-22T13:10:13.554Z,9.661543
2022-12-22T13:11:12.607Z,9.661577
2022-12-22T13:12:14.443Z,9.661540
2022-12-22T13:13:13.559Z,9.661518
2022-12-22T13:14:12.670Z,9.661575
2022-12-22T13:15:12.559Z,9.661525
2022-12-22T13:16:12.667Z,9.661498
2022-12-22T13:17:12.548Z,9.661504
2022-12-22T13:18:12.575Z,9.661540
2022-12-22T13:19:12.528Z,9.661568
2022-12-22T13:20:12.539Z,9.661534
2022-12-22T13:21:51.587Z,9.661553
2022-12-22T13:22:14.541Z,9.661529
2022-12-22T13:23:12.511Z,9.661613
2022-12-22T13:24:24.632Z,9.661554
2022-12-22T13:25:14.521Z,9.661533
2022-12-22T13:26:12.507Z,9.661521
2022-12-22T13:27:12.491Z,9.661508
2022-12-22T13:28:12.505Z,9.661543
2022-12-22T13:29:12.468Z,9.661584
2022-12-22T13:30:13.199Z,9.661454
2022-12-22T13:31:13.589Z,9.661575
2022-12-22T13:32:12.460Z,9.661566
2022-12-22T13:33:12.478Z,9.661460
2022-12-22T13:34:12.508Z,9.661539
2022-12-22T13:36:14.459Z,9.661516
2022-12-22T13:37:12.466Z,9.661571
2022-12-22T13:38:12.450Z,9.661508
2022-12-22T13:39:12.406Z,9.661496
2022-12-22T13:40:12.423Z,9.661554
2022-12-22T13:41:12.376Z,9.661534
2022-12-22T13:42:12.584Z,9.661585
2022-12-22T13:43:12.342Z,9.661544
2022-12-22T13:44:12.401Z,9.661601
2022-12-22T13:45:12.394Z,9.661563
2022-12-22T13:46:12.445Z,9.661592
2022-12-22T13:47:12.459Z,9.661633
2022-12-22T13:48:12.333Z,9.661594
2022-12-22T13:49:12.321Z,9.661590
2022-12-22T13:50:12.346Z,9.661567
2022-12-22T13:51:12.289Z,9.661586
2022-12-22T13:52:12.332Z,9.661580
2022-12-22T13:53:22.895Z,9.661539
2022-12-22T13:54:13.320Z,9.661690
2022-12-22T13:55:12.315Z,9.661632
2022-12-22T13:56:12.318Z,9.661604
2022-12-22T13:57:12.330Z,9.661545
2022-12-22T13:58:12.307Z,9.661529
2022-12-22T13:59:12.266Z,9.661618
2022-12-22T14:00:12.256Z,9.661589
2022-12-22T14:01:12.297Z,9.661656
2022-12-22T14:02:12.365Z,9.661544
2022-12-22T14:03:21.661Z,9.661578
2022-12-22T14:04:14.401Z,9.661655
2022-12-22T14:05:12.206Z,9.661692
2022-12-22T14:06:12.215Z,9.661757
2022-12-22T14:07:12.218Z,9.661816
2022-12-22T14:08:12.231Z,9.661739
2022-12-22T14:09:12.216Z,9.661647
2022-12-22T14:10:12.230Z,9.661798
2022-12-22T14:11:12.189Z,9.662078
2022-12-22T14:12:12.176Z,9.662230
2022-12-22T14:13:12.191Z,9.662015
2022-12-22T14:14:12.191Z,9.661933
2022-12-22T14:15:12.255Z,9.661852
2022-12-22T14:16:12.250Z,9.661811
2022-12-22T14:17:12.157Z,9.661860
2022-12-22T14:18:12.170Z,9.661592
2022-12-22T14:19:12.135Z,9.661853
2022-12-22T14:20:12.168Z,9.661810
2022-12-22T14:21:12.115Z,9.661808
2022-12-22T14:22:12.119Z,9.662086
2022-12-22T14:23:12.099Z,9.661626
2022-12-22T14:24:12.077Z,9.661562
2022-12-22T14:25:12.123Z,9.661664
2022-12-22T14:26:12.114Z,9.661757
2022-12-22T14:27:12.202Z,9.661634
2022-12-22T14:28:12.078Z,9.661645
2022-12-22T14:29:12.072Z,9.661595
2022-12-22T14:30:12.089Z,9.661583
2022-12-22T14:31:12.332Z,9.661686
2022-12-22T14:32:12.171Z,9.661718
2022-12-22T14:33:12.056Z,9.661669
2022-12-22T14:34:12.045Z,9.661790
2022-12-22T14:35:12.052Z,9.661732
2022-12-22T14:36:12.064Z,9.661740
2022-12-22T14:37:12.037Z,9.661813
2022-12-22T14:38:12.020Z,9.661779
2022-12-22T14:39:12.030Z,9.661844
2022-12-22T14:40:12.040Z,9.661887
2022-12-22T14:41:12.035Z,9.661759
2022-12-22T14:42:12.013Z,9.661781
2022-12-22T14:43:11.999Z,9.661672
2022-12-22T14:44:11.986Z,9.661743
2022-12-22T14:45:11.974Z,9.661793
2022-12-22T14:46:12.012Z,9.661716
2022-12-22T14:47:12.233Z,9.661746
2022-12-22T14:48:12.045Z,9.661673
2022-12-22T14:49:12.102Z,9.661673
2022-12-22T14:50:11.992Z,9.661639
2022-12-22T14:51:11.967Z,9.661586
2022-12-22T14:52:11.957Z,9.661548
2022-12-22T14:53:11.984Z,9.661607
2022-12-22T14:54:11.954Z,9.661636
2022-12-22T14:55:11.919Z,9.661670
2022-12-22T14:56:11.917Z,9.661688
2022-12-22T14:57:16.174Z,9.661633
2022-12-22T14:58:12.918Z,9.661695
2022-12-22T14:59:11.934Z,9.661687
2022-12-22T15:00:11.875Z,9.661612
2022-12-22T15:01:11.966Z,9.661641
2022-12-22T15:02:12.082Z,9.661725
2022-12-22T15:03:11.934Z,9.661718
2022-12-22T15:04:12.873Z,9.661812
2022-12-22T15:05:11.876Z,9.661716
2022-12-22T15:06:11.852Z,9.661625
2022-12-22T15:07:29.806Z,9.661660
2022-12-22T15:08:13.847Z,9.661605
2022-12-22T15:09:11.906Z,9.661679
2022-12-22T15:10:16.349Z,9.661569
2022-12-22T15:11:14.587Z,9.661767
2022-12-22T15:12:11.802Z,9.661711
2022-12-22T15:13:11.807Z,9.661613
2022-12-22T15:14:11.868Z,9.661646
2022-12-22T15:15:11.920Z,9.661624
2022-12-22T15:16:11.771Z,9.661633
2022-12-22T15:17:11.958Z,9.661565
2022-12-22T15:18:11.811Z,9.661601
2022-12-22T15:19:11.772Z,9.661624
2022-12-22T15:20:11.763Z,9.661576
2022-12-22T15:21:11.785Z,9.661602
2022-12-22T15:22:11.764Z,9.661667
2022-12-22T15:23:11.772Z,9.661738
2022-12-22T15:24:11.759Z,9.661695
2022-12-22T15:25:11.736Z,9.661864
2022-12-22T15:26:11.767Z,9.662001
2022-12-22T15:27:11.740Z,9.662119
2022-12-22T15:28:11.752Z,9.661969
2022-12-22T15:29:11.736Z,9.661972
2022-12-22T15:30:11.729Z,9.661788
2022-12-22T15:31:11.770Z,9.661572
2022-12-22T15:32:11.676Z,9.661710
2022-12-22T15:33:11.687Z,9.661688
2022-12-22T15:34:11.686Z,9.661496
2022-12-22T15:35:11.682Z,9.661406
2022-12-22T15:36:11.681Z,9.661454
2022-12-22T15:37:11.672Z,9.661468
2022-12-22T15:38:11.764Z,9.661561
2022-12-22T15:39:11.673Z,9.661759
2022-12-22T15:40:11.655Z,9.661809
2022-12-22T15:41:11.616Z,9.661737
2022-12-22T15:42:11.688Z,9.661649
2022-12-22T15:43:28.839Z,9.661478
2022-12-22T15:44:13.955Z,9.661499
2022-12-22T15:45:11.617Z,9.661468
2022-12-22T15:46:11.637Z,9.661422
2022-12-22T15:47:11.684Z,9.661456
2022-12-22T15:48:11.599Z,9.661532
2022-12-22T15:49:11.616Z,9.661509
2022-12-22T15:50:11.606Z,9.661449
2022-12-22T15:51:11.576Z,9.661478
2022-12-22T15:52:11.594Z,9.661547
2022-12-22T15:53:11.535Z,9.661542
2022-12-22T15:54:11.551Z,9.661511
2022-12-22T15:55:11.580Z,9.661596
2022-12-22T15:56:17.192Z,9.661565
2022-12-22T15:57:13.545Z,9.661543
2022-12-22T15:58:11.540Z,9.661529
2022-12-22T15:59:11.518Z,9.661618
2022-12-22T16:00:11.505Z,9.661604
2022-12-22T16:01:11.868Z,9.661592
2022-12-22T16:02:11.790Z,9.661537
2022-12-22T16:03:11.666Z,9.661489
2022-12-22T16:04:11.558Z,9.661509
2022-12-22T16:05:11.501Z,9.661584
2022-12-22T16:06:11.520Z,9.661459
2022-12-22T16:07:11.548Z,9.661506
2022-12-22T16:08:17.574Z,9.661468
2022-12-22T16:09:12.515Z,9.661560
2022-12-22T16:10:11.456Z,9.661564
2022-12-22T16:11:11.470Z,9.661607
2022-12-22T16:12:11.489Z,9.661588
2022-12-22T16:13:11.815Z,9.661521
2022-12-22T16:14:11.465Z,9.661511
2022-12-22T16:15:11.475Z,9.661495
2022-12-22T16:16:11.500Z,9.661410
2022-12-22T16:17:11.450Z,9.661482
2022-12-22T16:18:11.444Z,9.661566
2022-12-22T16:19:11.423Z,9.661700
2022-12-22T16:20:11.418Z,9.661621
2022-12-22T16:21:11.371Z,9.661526
2022-12-22T16:22:11.629Z,9.661525
2022-12-22T16:23:11.424Z,9.661643
2022-12-22T16:24:11.384Z,9.661562
2022-12-22T16:25:11.365Z,9.661648
2022-12-22T16:26:11.361Z,9.661598
2022-12-22T16:27:11.430Z,9.661596
2022-12-22T16:28:11.411Z,9.661547
2022-12-22T16:29:11.343Z,9.661419
2022-12-22T16:30:12.109Z,9.661439
2022-12-22T16:31:11.521Z,9.661613
2022-12-22T16:32:17.223Z,9.661673
2022-12-22T16:33:11.336Z,9.661575
2022-12-22T16:34:11.327Z,9.661521
2022-12-22T16:35:11.320Z,9.661581
2022-12-22T16:36:11.325Z,9.661572
2022-12-22T16:37:11.308Z,9.661594
2022-12-22T16:38:17.924Z,9.661635
2022-12-22T16:39:13.320Z,9.661604
2022-12-22T16:40:11.293Z,9.661701
2022-12-22T16:41:11.284Z,9.661622
2022-12-22T16:42:11.274Z,9.661553
2022-12-22T16:52:16.674Z,9.661180
2022-12-22T16:52:57.855Z,9.661180
2022-12-22T16:53:57.793Z,9.661180
2022-12-22T16:54:57.759Z,9.661180
2022-12-22T16:55:57.737Z,9.661180
2022-12-22T16:56:57.733Z,9.661180
2022-12-22T16:57:57.754Z,9.661180
2022-12-22T16:58:57.792Z,9.661180
2022-12-22T16:59:57.761Z,9.661180
2022-12-22T17:00:57.729Z,9.661180
2022-12-22T17:01:57.862Z,9.661180
2022-12-22T17:02:58.073Z,9.661180
2022-12-22T17:03:57.828Z,9.661180
2022-12-22T17:04:57.683Z,9.661180
2022-12-22T17:05:57.772Z,9.661180
2022-12-22T17:06:57.662Z,9.661180
2022-12-22T17:07:57.648Z,9.661180
2022-12-22T17:08:57.704Z,9.661180
2022-12-22T17:09:57.682Z,9.661180
2022-12-22T17:10:57.699Z,9.661180
2022-12-22T17:11:57.671Z,9.661180
2022-12-22T17:12:57.682Z,9.661180
2022-12-22T17:13:57.659Z,9.661180
2022-12-22T17:14:57.703Z,9.661180
2022-12-22T17:15:57.701Z,9.661180
2022-12-22T17:16:57.660Z,9.661180
2022-12-22T17:17:57.638Z,9.660400
2022-12-22T17:18:57.643Z,9.660400
2022-12-22T17:19:57.567Z,9.660400
2022-12-22T17:20:57.699Z,9.660400
2022-12-22T17:21:57.618Z,9.660400
2022-12-22T17:22:57.633Z,9.660400
2022-12-22T17:23:57.577Z,9.660400
2022-12-22T17:24:57.561Z,9.660400
2022-12-22T17:25:57.681Z,9.660400
2022-12-22T17:26:57.564Z,9.660400
2022-12-22T17:27:57.562Z,9.660400
2022-12-22T17:28:57.565Z,9.660400
2022-12-22T17:29:57.522Z,9.660400
2022-12-22T17:30:57.616Z,9.660400
2022-12-22T17:31:57.593Z,9.660400
2022-12-22T17:32:57.531Z,9.660400
2022-12-22T17:33:57.506Z,9.660400
2022-12-22T17:34:57.531Z,9.660400
2022-12-22T17:35:57.529Z,9.660400
2022-12-22T17:36:57.567Z,9.660400
2022-12-22T17:37:57.460Z,9.660803
2022-12-22T17:38:57.515Z,9.660803
2022-12-22T17:39:57.445Z,9.660824
2022-12-22T17:40:57.663Z,9.660824
2022-12-22T17:41:57.722Z,9.660824
2022-12-22T17:42:57.793Z,9.660824
2022-12-22T17:43:57.484Z,9.660824
2022-12-22T17:44:57.527Z,9.660824
2022-12-22T17:45:57.472Z,9.660824
2022-12-22T17:46:57.542Z,9.661035
2022-12-22T17:47:57.459Z,9.661035
2022-12-22T17:48:57.431Z,9.660959
2022-12-22T17:49:57.425Z,9.661474
2022-12-22T17:50:57.470Z,9.661474
2022-12-22T17:51:57.503Z,9.661474
2022-12-22T17:52:57.440Z,9.661201
2022-12-22T17:53:57.443Z,9.661402
2022-12-22T17:54:57.409Z,9.661402
2022-12-22T17:56:12.707Z,9.661745
2022-12-22T17:56:59.372Z,9.661703
2022-12-22T17:57:57.353Z,9.661648
2022-12-22T17:58:57.494Z,9.661723
2022-12-22T17:59:57.345Z,9.661649
2022-12-22T18:00:57.348Z,9.661690
2022-12-22T18:01:57.524Z,9.661706
2022-12-22T18:02:57.512Z,9.661654
2022-12-22T18:03:57.458Z,9.661612
2022-12-22T18:04:57.716Z,9.661599
2022-12-22T18:05:59.401Z,9.661587
2022-12-22T18:06:57.321Z,9.661587
2022-12-22T18:07:57.309Z,9.661587
2022-12-22T18:08:57.291Z,9.661579
2022-12-22T18:09:57.309Z,9.661581
2022-12-22T18:10:57.287Z,9.661472
2022-12-22T18:11:58.299Z,9.661469
2022-12-22T18:12:57.268Z,9.661654
2022-12-22T18:13:57.369Z,9.661632
2022-12-22T18:14:57.245Z,9.661669
2022-12-22T18:15:57.311Z,9.661640
2022-12-22T18:16:57.243Z,9.661701
2022-12-22T18:17:57.243Z,9.661664
2022-12-22T18:18:57.256Z,9.661685
2022-12-22T18:19:57.231Z,9.661725
2022-12-22T18:21:06.914Z,9.661756
2022-12-22T18:21:58.198Z,9.661607
2022-12-22T18:22:57.210Z,9.661707
2022-12-22T18:23:57.179Z,9.661598
2022-12-22T18:24:57.217Z,9.661760
2022-12-22T18:25:57.223Z,9.661676
2022-12-22T18:26:57.313Z,9.661660
2022-12-22T18:27:57.177Z,9.661590
2022-12-22T18:28:57.225Z,9.661604
2022-12-22T18:29:57.168Z,9.661659
2022-12-22T18:30:57.178Z,9.661604
2022-12-22T18:31:57.313Z,9.661580
2022-12-22T18:32:57.120Z,9.661683
2022-12-22T18:33:57.128Z,9.661590
2022-12-22T18:34:57.124Z,9.661557
2022-12-22T18:35:57.160Z,9.661586
2022-12-22T18:36:57.135Z,9.661573
2022-12-22T18:37:57.132Z,9.661536
2022-12-22T18:38:57.106Z,9.661613
2022-12-22T18:39:57.084Z,9.661670
2022-12-22T18:40:57.061Z,9.661577
2022-12-22T18:41:57.083Z,9.661517
2022-12-22T18:42:57.184Z,9.661530
2022-12-22T18:43:57.066Z,9.661548
2022-12-22T18:44:57.083Z,9.661487
2022-12-22T18:45:57.088Z,9.661447
2022-12-22T18:46:57.131Z,9.661478
2022-12-22T18:47:57.038Z,9.661474
2022-12-22T18:49:03.483Z,9.661656
2022-12-22T18:49:58.045Z,9.661625
2022-12-22T18:50:57.051Z,9.661429
2022-12-22T18:51:57.044Z,9.661504
2022-12-22T18:52:57.019Z,9.661638
2022-12-22T18:53:57.120Z,9.661500
2022-12-22T18:54:57.019Z,9.661505
2022-12-22T18:55:57.022Z,9.661650
2022-12-22T18:56:56.988Z,9.661777
2022-12-22T18:57:57.015Z,9.661617
2022-12-22T18:58:56.989Z,9.661682
2022-12-22T18:59:57.089Z,9.661523
2022-12-22T19:00:57.043Z,9.661406
2022-12-22T19:01:57.054Z,9.661619
2022-12-22T19:02:57.022Z,9.661636
2022-12-22T19:03:56.913Z,9.661529
2022-12-22T19:04:57.977Z,9.661320
2022-12-22T19:05:56.986Z,9.661398
2022-12-22T19:06:56.917Z,9.661551
2022-12-22T19:07:56.912Z,9.661517
2022-12-22T19:08:56.927Z,9.661367
2022-12-22T19:09:56.913Z,9.661578
2022-12-22T19:10:56.903Z,9.661798
2022-12-22T19:11:56.899Z,9.661825
2022-12-22T19:12:56.875Z,9.661766
2022-12-22T19:13:57.864Z,9.661772
2022-12-22T19:14:56.853Z,9.661754
2022-12-22T19:15:56.903Z,9.661660
2022-12-22T19:16:56.863Z,9.661466
2022-12-22T19:17:56.840Z,9.661489
2022-12-22T19:18:56.821Z,9.661800
2022-12-22T19:19:56.876Z,9.661393
2022-12-22T19:20:56.839Z,9.661158
2022-12-22T19:21:56.825Z,9.661321
2022-12-22T19:22:56.809Z,9.661326
2022-12-22T19:23:56.793Z,9.661280
2022-12-22T19:24:56.774Z,9.661301
2022-12-22T19:25:56.804Z,9.661298
2022-12-22T19:26:56.807Z,9.661596
2022-12-22T19:27:56.764Z,9.661525
2022-12-22T19:28:56.779Z,9.662132
2022-12-22T19:30:02.991Z,9.662236
2022-12-22T19:30:58.797Z,9.661674
2022-12-22T19:31:56.844Z,9.661070
2022-12-22T19:32:56.903Z,9.661039
2022-12-22T19:33:56.721Z,9.661022
2022-12-22T19:34:56.729Z,9.660866
2022-12-22T19:35:56.756Z,9.661206
2022-12-22T19:36:56.738Z,9.661554
2022-12-22T19:37:56.730Z,9.661538
2022-12-22T19:39:03.417Z,9.661880
2022-12-22T19:39:58.682Z,9.661711
2022-12-22T19:40:56.712Z,9.661356
2022-12-22T19:41:56.712Z,9.661858
2022-12-22T19:42:56.656Z,9.661763
2022-12-22T19:43:56.646Z,9.661373
2022-12-22T19:44:56.664Z,9.661601
2022-12-22T19:45:56.724Z,9.661535
2022-12-22T19:46:56.662Z,9.661532
2022-12-22T19:47:56.677Z,9.661515
2022-12-22T19:48:56.637Z,9.661491
2022-12-22T19:49:56.626Z,9.661622
2022-12-22T19:50:56.620Z,9.661422
2022-12-22T19:51:57.401Z,9.661438
2022-12-22T19:52:56.593Z,9.661513
2022-12-22T19:53:56.591Z,9.661536
2022-12-22T19:54:56.636Z,9.661526
2022-12-22T19:55:56.641Z,9.661565
2022-12-22T19:56:56.617Z,9.661302
2022-12-22T19:57:56.584Z,9.661520
2022-12-22T19:58:56.580Z,9.661537
2022-12-22T19:59:56.633Z,9.661597
2022-12-22T20:00:56.633Z,9.661498
2022-12-22T20:01:57.412Z,9.661551
2022-12-22T20:02:56.619Z,9.661470
2022-12-22T20:03:56.538Z,9.661460
2022-12-22T20:04:56.544Z,9.661493
2022-12-22T20:05:56.541Z,9.661453
2022-12-22T20:06:56.587Z,9.661474
2022-12-22T20:07:56.543Z,9.661414
2022-12-22T20:08:56.482Z,9.661398
2022-12-22T20:09:56.502Z,9.661551
2022-12-22T20:10:58.902Z,9.661835
2022-12-22T20:11:56.495Z,9.661630
2022-12-22T20:12:56.448Z,9.661440
2022-12-22T20:13:56.451Z,9.661518
2022-12-22T20:14:56.470Z,9.661477
2022-12-22T20:15:56.468Z,9.661498
2022-12-22T20:16:56.524Z,9.661568
2022-12-22T20:17:56.417Z,9.661353
2022-12-22T20:18:56.419Z,9.661542
2022-12-22T20:19:56.453Z,9.661368
2022-12-22T20:20:57.610Z,9.661208
2022-12-22T20:21:57.415Z,9.661531
2022-12-22T20:22:56.407Z,9.661491
2022-12-22T20:23:56.418Z,9.661229
2022-12-22T20:24:56.417Z,9.661489
2022-12-22T20:25:56.425Z,9.661535
2022-12-22T20:26:56.443Z,9.661381
2022-12-22T20:27:56.395Z,9.661383
2022-12-22T20:28:56.409Z,9.661468
2022-12-22T20:29:56.393Z,9.661489
2022-12-22T20:30:56.387Z,9.661510
2022-12-22T20:31:56.414Z,9.661448
2022-12-22T20:32:56.343Z,9.661430
2022-12-22T20:33:56.370Z,9.661521
2022-12-22T20:34:56.355Z,9.661522
2022-12-22T20:35:56.347Z,9.661548
2022-12-22T20:36:56.365Z,9.661538
2022-12-22T20:37:56.313Z,9.661589
2022-12-22T20:38:56.297Z,9.661575
2022-12-22T20:39:56.340Z,9.661502
2022-12-22T20:40:56.298Z,9.661494
2022-12-22T20:41:56.332Z,9.661522
2022-12-22T20:42:56.262Z,9.661487
2022-12-22T20:43:56.271Z,9.661522
2022-12-22T20:45:02.405Z,9.661487
2022-12-22T20:45:57.372Z,9.661724
2022-12-22T20:46:56.217Z,9.661561
2022-12-22T20:47:56.280Z,9.661469
2022-12-22T20:48:56.321Z,9.661420
2022-12-22T20:49:56.226Z,9.661525
2022-12-22T20:50:56.206Z,9.661127
2022-12-22T20:51:56.412Z,9.660975
2022-12-22T20:52:56.261Z,9.661191
2022-12-22T20:53:56.232Z,9.661595
2022-12-22T20:54:56.249Z,9.661609
2022-12-22T20:55:56.235Z,9.661624
2022-12-22T20:56:56.222Z,9.661535
2022-12-22T20:57:56.205Z,9.661515
2022-12-22T20:58:56.199Z,9.661530
2022-12-22T20:59:56.921Z,9.661407
2022-12-22T21:00:57.210Z,9.661408
2022-12-22T21:01:56.327Z,9.661325
2022-12-22T21:02:56.399Z,9.661422
2022-12-22T21:03:56.224Z,9.661490
2022-12-22T21:04:56.182Z,9.661653
2022-12-22T21:05:56.167Z,9.661578
2022-12-22T21:06:57.139Z,9.661549
2022-12-22T21:07:56.194Z,9.661608
2022-12-22T21:08:56.128Z,9.661551
2022-12-22T21:09:56.089Z,9.661652
2022-12-22T21:10:56.105Z,9.661676
2022-12-22T21:11:56.086Z,9.661711
2022-12-22T21:12:56.095Z,9.661674
2022-12-22T21:13:56.114Z,9.661484
2022-12-22T21:14:56.095Z,9.661539
2022-12-22T21:15:56.098Z,9.661661
2022-12-22T21:16:56.408Z,9.661767
2022-12-22T21:17:58.852Z,9.661748
2022-12-22T21:18:56.290Z,9.661521
2022-12-22T21:19:56.091Z,9.661499
2022-12-22T21:20:56.078Z,9.661465
2022-12-22T21:21:56.095Z,9.661640
2022-12-22T21:22:56.039Z,9.661514
2022-12-22T21:23:56.022Z,9.661381
2022-12-22T21:24:56.046Z,9.661430
2022-12-22T21:25:55.992Z,9.661419
2022-12-22T21:26:56.018Z,9.661481